Time;durP1;ratioP1;P1;durP2;ratioP2;P2;SDS_P1;SDS_P2;PMS_P1;PMS_P2;Temp;Humidity;BMP_temperature;BMP_pressure;BME280_temperature;BME280_humidity;BME280_pressure;Samples;Min_cycle;Max_cycle;Signal;HPM_P1;HPM_P2
2023/09/30 00:00:05;;;;;;;;;4.67;4.67;;;;;16.08;64.33;101952.41;5080089;27;45511;-83
2023/09/30 00:02:30;;;;;;;;;6.33;5.00;;;;;16.02;64.71;101941.16;5080340;27;45280;-81
2023/09/30 00:04:55;;;;;;;;;5.00;4.00;;;;;16.05;64.58;101949.91;5079275;27;45259;-83
2023/09/30 00:07:22;;;;;;;;;8.00;5.00;;;;;16.02;64.83;101941.16;5079142;28;46274;-83
2023/09/30 00:09:47;;;;;;;;;6.00;5.67;;;;;15.99;64.89;101938.63;5081029;28;45459;-84
2023/09/30 00:12:12;;;;;;;;;9.33;6.67;;;;;15.96;64.82;101947.72;5080836;28;45461;-82
2023/09/30 00:14:38;;;;;;;;;3.67;3.33;;;;;16.00;64.70;101964.50;5080763;28;49768;-82
2023/09/30 00:17:03;;;;;;;;;7.33;5.33;;;;;15.80;64.73;101925.41;5082999;28;57899;-82
2023/09/30 00:19:29;;;;;;;;;7.00;7.00;;;;;15.99;64.78;101968.16;5083365;27;45342;-82
2023/09/30 00:21:54;;;;;;;;;6.33;5.33;;;;;15.79;64.83;101935.28;5082018;28;45428;-81
2023/09/30 00:24:19;;;;;;;;;4.33;3.33;;;;;15.82;64.65;101939.59;5095415;27;45501;-81
2023/09/30 00:26:46;;;;;;;;;7.67;4.00;;;;;15.93;65.04;101953.28;5080550;28;45419;-84
2023/09/30 00:29:11;;;;;;;;;8.00;6.67;;;;;15.94;65.48;101965.75;5079115;27;45879;-81
2023/09/30 00:31:36;;;;;;;;;3.67;2.33;;;;;15.93;64.89;101958.63;5078258;27;45305;-81
2023/09/30 00:34:02;;;;;;;;;10.67;5.00;;;;;15.88;65.33;101949.97;5077675;27;45990;-84
2023/09/30 00:36:27;;;;;;;;;9.33;7.00;;;;;15.89;65.42;101962.47;5075501;28;60222;-81
2023/09/30 00:38:52;;;;;;;;;11.33;7.67;;;;;15.87;66.01;101983.97;5077601;28;48488;-81
2023/09/30 00:41:17;;;;;;;;;14.00;12.00;;;;;15.87;65.89;101975.94;5078226;27;45586;-82
2023/09/30 00:43:46;;;;;;;;;9.67;8.67;;;;;15.70;66.17;101930.44;5077953;27;46016;-81
2023/09/30 00:46:21;;;;;;;;;8.67;8.00;;;;;15.85;66.41;101951.00;5077418;27;45238;-81
2023/09/30 00:48:46;;;;;;;;;10.00;9.00;;;;;15.76;66.55;101946.19;5077878;27;45329;-80
2023/09/30 00:51:12;;;;;;;;;16.00;13.00;;;;;15.83;66.57;101952.94;5077725;27;45672;-85
2023/09/30 00:53:38;;;;;;;;;14.33;13.33;;;;;15.74;66.49;101942.69;5078354;27;46051;-80
2023/09/30 00:56:03;;;;;;;;;14.33;12.67;;;;;15.64;67.04;101914.69;5078022;27;45200;-81
2023/09/30 00:58:30;;;;;;;;;15.67;15.67;;;;;15.78;67.13;101928.19;5076157;28;45205;-80
2023/09/30 01:00:56;;;;;;;;;13.67;13.33;;;;;15.75;67.47;101927.47;5080453;27;45440;-83
2023/09/30 01:03:22;;;;;;;;;15.67;13.33;;;;;15.63;68.04;101903.09;5086955;28;45291;-81
2023/09/30 01:05:49;;;;;;;;;18.67;15.67;;;;;15.70;67.91;101938.47;5083981;27;44826;-82
2023/09/30 01:08:19;;;;;;;;;11.33;11.33;;;;;15.65;68.28;101948.59;5083997;28;45160;-83
2023/09/30 01:10:45;;;;;;;;;12.33;12.33;;;;;15.63;67.96;101953.19;5082562;27;45283;-82
2023/09/30 01:13:11;;;;;;;;;22.00;18.00;;;;;15.64;67.43;101954.91;5083670;28;45329;-84
2023/09/30 01:15:36;;;;;;;;;13.67;13.00;;;;;15.53;67.73;101927.78;5077898;27;45386;-82
2023/09/30 01:18:03;;;;;;;;;15.67;15.67;;;;;15.53;67.87;101933.16;5077404;27;45480;-83
2023/09/30 01:20:28;;;;;;;;;14.00;14.00;;;;;15.62;68.12;101954.13;5077919;28;45407;-83
2023/09/30 01:22:56;;;;;;;;;17.33;13.67;;;;;15.61;67.74;101969.34;5076765;27;46183;-82
2023/09/30 01:25:21;;;;;;;;;17.67;14.67;;;;;15.53;68.37;101968.88;5076837;27;45287;-80
2023/09/30 01:27:47;;;;;;;;;10.33;8.67;;;;;15.46;68.62;101959.44;5077147;27;45240;-81
2023/09/30 01:30:13;;;;;;;;;11.67;11.67;;;;;15.42;68.26;101962.38;5079381;28;45216;-85
2023/09/30 01:32:39;;;;;;;;;11.33;11.00;;;;;15.49;68.69;101971.78;5087374;27;45278;-82
2023/09/30 01:35:05;;;;;;;;;7.33;6.33;;;;;15.40;68.74;101969.63;5085332;27;45431;-82
2023/09/30 01:37:31;;;;;;;;;14.67;12.00;;;;;15.38;68.95;101950.09;5084936;27;45408;-87
2023/09/30 01:39:56;;;;;;;;;9.33;9.33;;;;;15.36;68.94;101947.47;5096132;27;44938;-82
2023/09/30 01:42:22;;;;;;;;;14.67;11.00;;;;;15.30;69.21;101937.97;5098266;27;45273;-84
2023/09/30 01:44:47;;;;;;;;;11.67;9.67;;;;;15.42;69.29;101948.97;5086869;28;51291;-87
2023/09/30 01:47:13;;;;;;;;;11.67;11.67;;;;;15.41;68.99;101933.84;5085705;28;45228;-88
2023/09/30 01:49:38;;;;;;;;;15.00;15.00;;;;;15.38;69.05;101925.97;5088404;28;45526;-89
2023/09/30 01:52:04;;;;;;;;;11.67;11.67;;;;;15.40;69.80;101940.16;5091986;27;46289;-85
2023/09/30 01:54:29;;;;;;;;;11.00;10.67;;;;;15.20;69.65;101912.59;5083237;28;45434;-82
2023/09/30 01:56:54;;;;;;;;;13.67;11.33;;;;;15.34;69.63;101947.56;5081611;28;45924;-80
2023/09/30 01:59:20;;;;;;;;;17.67;12.00;;;;;15.34;69.03;101939.50;5085179;28;45267;-84
2023/09/30 02:01:48;;;;;;;;;13.00;11.33;;;;;15.10;69.70;101894.41;5090468;28;49351;-82
2023/09/30 02:04:17;;;;;;;;;11.00;11.00;;;;;15.14;69.83;101902.22;5091604;27;45239;-86
2023/09/30 02:06:42;;;;;;;;;9.67;8.67;;;;;15.06;69.83;101896.41;5092272;28;45346;-82
2023/09/30 02:09:08;;;;;;;;;14.67;11.33;;;;;15.24;70.07;101941.00;5092397;28;45368;-84
2023/09/30 02:11:35;;;;;;;;;9.00;7.00;;;;;15.22;69.71;101945.53;5094653;27;46120;-80
2023/09/30 02:14:02;;;;;;;;;11.67;11.33;;;;;15.06;70.39;101907.13;5091766;27;45274;-81
2023/09/30 02:16:27;;;;;;;;;14.00;13.00;;;;;15.18;70.39;101946.66;5082421;27;45634;-86
2023/09/30 02:18:53;;;;;;;;;14.00;12.00;;;;;15.14;70.40;101930.84;5082775;28;45370;-83
2023/09/30 02:21:19;;;;;;;;;14.00;13.67;;;;;15.02;70.28;101908.25;5082672;28;47440;-82
2023/09/30 02:23:47;;;;;;;;;14.33;13.33;;;;;15.00;70.55;101907.47;5085448;27;45256;-86
2023/09/30 02:26:14;;;;;;;;;22.00;18.00;;;;;15.18;70.62;101937.75;5082833;28;44780;-82
2023/09/30 02:28:39;;;;;;;;;13.67;13.67;;;;;15.12;70.66;101933.59;5084869;28;45387;-86
2023/09/30 02:31:07;;;;;;;;;9.00;9.00;;;;;15.04;69.91;101925.97;5084154;28;46503;-84
2023/09/30 02:33:35;;;;;;;;;11.33;8.33;;;;;14.99;70.03;101916.47;5081822;28;45225;-83
2023/09/30 02:36:00;;;;;;;;;4.33;3.00;;;;;14.93;70.38;101908.72;5085642;27;45446;-87
2023/09/30 02:38:27;;;;;;;;;11.33;10.00;;;;;15.00;70.44;101919.06;5087691;28;45421;-82
2023/09/30 02:40:54;;;;;;;;;12.00;12.00;;;;;15.09;70.25;101932.88;5089466;28;45344;-82
2023/09/30 02:43:20;;;;;;;;;8.33;7.00;;;;;15.05;70.47;101927.69;5084891;28;45385;-85
2023/09/30 02:45:46;;;;;;;;;15.00;11.33;;;;;14.95;70.79;101905.03;5089804;28;46159;-84
2023/09/30 02:48:11;;;;;;;;;18.00;12.33;;;;;15.01;71.00;101928.81;5084307;28;45326;-82
2023/09/30 02:50:37;;;;;;;;;15.33;15.33;;;;;14.99;71.10;101932.53;5081855;27;46130;-85
2023/09/30 02:53:02;;;;;;;;;19.00;14.67;;;;;14.74;71.10;101907.03;5086160;27;45202;-81
2023/09/30 02:55:28;;;;;;;;;15.00;14.00;;;;;14.79;71.02;101920.19;5085726;28;45288;-82
2023/09/30 02:57:53;;;;;;;;;10.00;9.33;;;;;14.94;71.25;101945.28;5082417;27;45524;-83
2023/09/30 03:00:25;;;;;;;;;11.00;11.00;;;;;14.87;71.01;101938.53;5096176;27;56845;-82
2023/09/30 03:02:52;;;;;;;;;18.00;13.33;;;;;14.83;70.91;101942.31;5080574;27;45317;-82
2023/09/30 03:05:18;;;;;;;;;13.33;13.33;;;;;14.89;71.15;101963.44;5078589;28;45331;-81
2023/09/30 03:07:45;;;;;;;;;15.33;10.67;;;;;14.69;70.74;101938.53;5079270;27;45339;-82
2023/09/30 03:10:12;;;;;;;;;13.00;8.67;;;;;14.81;70.72;101961.13;5077733;28;46261;-83
2023/09/30 03:12:38;;;;;;;;;14.33;12.67;;;;;14.74;71.08;101947.22;5079932;27;45476;-82
2023/09/30 03:15:04;;;;;;;;;11.67;10.00;;;;;14.69;70.96;101941.22;5079482;28;45333;-81
2023/09/30 03:17:31;;;;;;;;;12.67;10.00;;;;;14.80;71.00;101958.53;5081932;27;45401;-82
2023/09/30 03:19:57;;;;;;;;;15.67;11.67;;;;;14.76;70.88;101957.84;5085465;28;46070;-82
2023/09/30 03:22:22;;;;;;;;;9.00;9.00;;;;;14.76;71.36;101963.19;5086898;27;45293;-83
2023/09/30 03:24:48;;;;;;;;;12.33;10.33;;;;;14.75;71.20;101966.81;5082747;27;45275;-83
2023/09/30 03:27:14;;;;;;;;;11.33;8.00;;;;;14.77;70.73;101964.94;5080647;28;45561;-84
2023/09/30 03:29:40;;;;;;;;;9.00;9.00;;;;;14.68;71.09;101955.53;5079315;27;46149;-83
2023/09/30 03:32:06;;;;;;;;;6.00;6.00;;;;;14.77;71.33;101961.38;5085293;27;45403;-82
2023/09/30 03:34:31;;;;;;;;;9.33;8.67;;;;;14.64;71.33;101956.66;5087289;27;45452;-88
2023/09/30 03:36:58;;;;;;;;;9.00;9.00;;;;;14.74;71.52;101976.66;5083292;27;45317;-84
2023/09/30 03:39:26;;;;;;;;;13.33;8.00;;;;;14.56;71.32;101948.13;5081979;28;46439;-85
2023/09/30 03:41:57;;;;;;;;;14.00;10.33;;;;;14.57;71.62;101957.91;5087571;27;45282;-82
2023/09/30 03:44:23;;;;;;;;;15.67;10.00;;;;;14.71;71.88;101978.63;5086419;27;45806;-83
2023/09/30 03:46:49;;;;;;;;;7.67;7.67;;;;;14.72;72.47;101975.88;5084984;27;46103;-81
2023/09/30 03:49:15;;;;;;;;;9.33;8.00;;;;;14.70;72.77;101975.06;5082564;27;45538;-82
2023/09/30 03:51:40;;;;;;;;;7.00;7.00;;;;;14.72;72.71;101973.22;5079352;27;45270;-81
2023/09/30 03:54:08;;;;;;;;;10.67;9.00;;;;;14.64;72.72;101959.34;5077454;28;45454;-82
2023/09/30 03:56:34;;;;;;;;;13.00;10.00;;;;;14.59;73.01;101944.47;5078467;28;45473;-80
2023/09/30 03:58:59;;;;;;;;;8.00;8.00;;;;;14.71;72.43;101966.13;5080991;27;45618;-81
2023/09/30 04:01:26;;;;;;;;;8.00;8.00;;;;;14.73;72.62;101966.91;5080605;27;45163;-82
2023/09/30 04:03:54;;;;;;;;;11.00;9.00;;;;;14.70;72.60;101959.00;5078765;27;45482;-82
2023/09/30 04:06:20;;;;;;;;;38.50;35.75;;;;;14.71;73.23;101955.41;5079040;27;45637;-82
2023/09/30 04:08:45;;;;;;;;;11.00;9.33;;;;;14.66;72.93;101941.38;5078599;27;45545;-82
2023/09/30 04:11:17;;;;;;;;;17.67;17.00;;;;;14.65;73.19;101944.13;5079175;28;45363;-81
2023/09/30 04:13:43;;;;;;;;;14.00;14.00;;;;;14.60;73.13;101920.28;5078947;27;45377;-80
2023/09/30 04:16:08;;;;;;;;;10.33;10.33;;;;;14.54;73.58;101915.22;5078671;27;45481;-85
2023/09/30 04:18:34;;;;;;;;;12.33;9.00;;;;;14.38;73.74;101892.84;5076376;28;46451;-82
2023/09/30 04:20:59;;;;;;;;;11.00;10.67;;;;;14.50;73.08;101902.97;5079441;28;57008;-81
2023/09/30 04:23:25;;;;;;;;;12.33;11.00;;;;;14.36;72.81;101871.53;5077042;28;45471;-80
2023/09/30 04:25:50;;;;;;;;;9.00;7.00;;;;;14.54;73.06;101891.13;5077728;27;46208;-81
2023/09/30 04:28:20;;;;;;;;;14.00;9.00;;;;;14.57;72.34;101899.00;5080099;27;45353;-82
2023/09/30 04:30:50;;;;;;;;;12.33;10.33;;;;;14.54;71.62;101888.47;5079507;27;45393;-82
2023/09/30 04:33:17;;;;;;;;;8.00;7.00;;;;;14.63;72.09;101896.03;5077882;27;45309;-81
2023/09/30 04:35:42;;;;;;;;;6.00;6.00;;;;;14.59;71.76;101891.78;5077822;27;45227;-82
2023/09/30 04:38:08;;;;;;;;;11.67;8.33;;;;;14.55;71.37;101884.84;5077674;27;45475;-84
2023/09/30 04:40:33;;;;;;;;;10.33;7.00;;;;;14.40;71.47;101857.03;5077958;28;45435;-82
2023/09/30 04:42:59;;;;;;;;;10.67;10.67;;;;;14.50;71.68;101881.53;5078987;28;45341;-83
2023/09/30 04:45:26;;;;;;;;;15.00;12.00;;;;;14.43;71.81;101888.97;5078358;27;45699;-83
2023/09/30 04:47:56;;;;;;;;;15.67;13.33;;;;;14.45;72.13;101907.66;5077790;27;46910;-82
2023/09/30 04:50:21;;;;;;;;;15.67;12.33;;;;;14.48;72.60;101928.09;5078170;27;45425;-82
2023/09/30 04:52:48;;;;;;;;;11.00;11.00;;;;;14.41;72.19;101919.44;5078727;27;45396;-81
2023/09/30 04:55:18;;;;;;;;;13.67;12.00;;;;;14.47;72.30;101937.94;5078691;27;45297;-83
2023/09/30 04:57:48;;;;;;;;;9.33;9.00;;;;;14.45;72.47;101947.81;5078888;27;46032;-80
2023/09/30 05:00:14;;;;;;;;;10.00;9.67;;;;;14.42;72.42;101948.81;5077355;27;45321;-82
2023/09/30 05:02:40;;;;;;;;;7.33;6.00;;;;;14.39;72.48;101943.63;5077434;27;45349;-82
2023/09/30 05:05:06;;;;;;;;;7.67;7.00;;;;;14.31;72.75;101924.41;5076995;27;45518;-81
2023/09/30 05:07:32;;;;;;;;;8.00;8.00;;;;;14.40;72.93;101929.28;5077451;27;46144;-81
2023/09/30 05:10:00;;;;;;;;;6.00;6.00;;;;;14.40;72.55;101933.78;5094657;27;45468;-82
2023/09/30 05:12:25;;;;;;;;;7.00;7.00;;;;;14.37;72.80;101939.28;5078737;28;45294;-81
2023/09/30 05:14:52;;;;;;;;;8.00;8.00;;;;;14.35;72.97;101950.06;5077578;27;45299;-81
2023/09/30 05:17:18;;;;;;;;;9.67;7.00;;;;;14.33;73.06;101951.09;5077575;28;45498;-82
2023/09/30 05:19:44;;;;;;;;;7.67;7.00;;;;;14.10;73.01;101910.31;5076648;28;45338;-82
2023/09/30 05:22:10;;;;;;;;;10.00;8.00;;;;;14.04;73.09;101899.88;5078125;28;45253;-80
2023/09/30 05:24:35;;;;;;;;;6.33;6.33;;;;;14.09;72.78;101913.06;5077496;27;45537;-82
2023/09/30 05:27:01;;;;;;;;;5.67;5.67;;;;;14.14;72.98;101929.72;5078056;27;45576;-81
2023/09/30 05:29:27;;;;;;;;;6.00;4.33;;;;;14.23;73.07;101960.53;5070655;27;45539;-80
2023/09/30 05:31:52;;;;;;;;;11.00;7.00;;;;;14.17;72.81;101954.50;5062841;28;45772;-83
2023/09/30 05:34:18;;;;;;;;;6.00;6.00;;;;;14.08;73.21;101944.28;5057797;28;45707;-81
2023/09/30 05:36:43;;;;;;;;;5.67;5.00;;;;;14.06;73.07;101932.81;5070865;28;45390;-82
2023/09/30 05:39:10;;;;;;;;;13.67;6.00;;;;;14.11;73.29;101949.47;5055526;28;45330;-83
2023/09/30 05:41:37;;;;;;;;;7.00;7.00;;;;;14.14;73.12;101959.16;5064073;27;45251;-82
2023/09/30 05:44:03;;;;;;;;;12.67;6.67;;;;;14.08;73.48;101946.09;5065493;28;45428;-83
2023/09/30 05:46:30;;;;;;;;;12.00;8.33;;;;;13.82;73.29;101904.59;5074300;28;45421;-82
2023/09/30 05:48:55;;;;;;;;;2.00;2.00;;;;;14.10;73.75;101954.91;5073211;27;45451;-83
2023/09/30 05:51:21;;;;;;;;;8.67;8.67;;;;;13.91;73.34;101925.50;5065910;28;45452;-82
2023/09/30 05:53:48;;;;;;;;;11.00;5.33;;;;;13.97;73.36;101925.22;5074695;27;45785;-81
2023/09/30 05:56:15;;;;;;;;;6.00;4.67;;;;;13.87;73.28;101889.16;5057947;28;47051;-82
2023/09/30 05:58:42;;;;;;;;;10.33;6.00;;;;;14.10;72.93;101926.34;5054837;28;45375;-81
2023/09/30 06:01:12;;;;;;;;;7.67;7.33;;;;;13.90;73.21;101889.00;5061248;28;45436;-82
2023/09/30 06:03:39;;;;;;;;;9.00;7.33;;;;;14.11;73.25;101928.09;5069122;28;45698;-80
2023/09/30 06:06:15;;;;;;;;;8.33;6.33;;;;;14.10;73.36;101937.06;5068051;27;46108;-82
2023/09/30 06:08:41;;;;;;;;;12.33;8.67;;;;;14.06;72.80;101923.88;5071747;27;45319;-82
2023/09/30 06:11:06;;;;;;;;;7.00;6.67;;;;;14.15;73.15;101943.03;5057988;28;45471;-82
2023/09/30 06:13:35;;;;;;;;;12.67;7.33;;;;;14.11;73.34;101943.28;5057803;28;45445;-83
2023/09/30 06:16:02;;;;;;;;;9.33;7.33;;;;;14.10;73.66;101942.41;5063972;27;45638;-80
2023/09/30 06:18:27;;;;;;;;;7.33;7.33;;;;;14.13;73.02;101942.25;5058010;28;45429;-81
2023/09/30 06:20:53;;;;;;;;;8.00;8.00;;;;;14.17;73.15;101956.31;5075542;28;46343;-82
2023/09/30 06:23:18;;;;;;;;;10.67;9.00;;;;;13.99;73.17;101936.72;5056490;28;45592;-81
2023/09/30 06:25:43;;;;;;;;;9.33;8.33;;;;;14.04;73.26;101940.00;5076494;28;55839;-84
2023/09/30 06:28:09;;;;;;;;;11.00;9.67;;;;;14.21;73.10;101955.25;5064359;27;45248;-82
2023/09/30 06:30:35;;;;;;;;;9.00;8.33;;;;;14.22;73.17;101930.22;5076646;28;45358;-80
2023/09/30 06:33:01;;;;;;;;;10.67;7.33;;;;;14.15;73.06;101912.72;5074541;28;45279;-84
2023/09/30 06:35:28;;;;;;;;;8.67;8.00;;;;;14.26;72.46;101942.50;5070364;28;45942;-82
2023/09/30 06:37:53;;;;;;;;;8.67;7.33;;;;;14.30;72.71;101948.56;5081042;28;45361;-83
2023/09/30 06:40:19;;;;;;;;;15.00;8.00;;;;;14.41;71.55;101973.84;5079726;28;45502;-83
2023/09/30 06:42:44;;;;;;;;;14.00;11.67;;;;;14.51;71.18;101987.69;5079439;28;45609;-84
2023/09/30 06:45:10;;;;;;;;;10.67;8.67;;;;;14.53;71.63;101969.72;5078702;28;45515;-85
2023/09/30 06:47:37;;;;;;;;;10.67;8.00;;;;;14.61;70.87;101956.81;5077004;28;45580;-83
2023/09/30 06:50:07;;;;;;;;;13.33;9.67;;;;;14.64;70.76;101956.66;5077695;28;45485;-83
2023/09/30 06:52:34;;;;;;;;;14.67;13.00;;;;;14.65;70.80;101954.84;5079054;28;45643;-84
2023/09/30 06:54:59;;;;;;;;;11.67;11.67;;;;;14.42;70.45;101923.84;5075048;27;46109;-84
2023/09/30 06:57:25;;;;;;;;;9.67;9.67;;;;;14.77;70.78;101959.56;5059864;28;46342;-83
2023/09/30 06:59:50;;;;;;;;;12.00;9.33;;;;;14.80;70.22;101966.56;5058843;28;45477;-83
2023/09/30 07:02:16;;;;;;;;;11.33;10.67;;;;;14.71;70.73;101950.06;5074264;28;50259;-81
2023/09/30 07:04:41;;;;;;;;;11.67;9.00;;;;;14.82;69.97;101957.50;5080141;28;57490;-83
2023/09/30 07:07:06;;;;;;;;;16.00;10.33;;;;;14.77;70.23;101937.28;5080354;27;45415;-82
2023/09/30 07:09:32;;;;;;;;;10.33;10.33;;;;;14.93;69.73;101955.13;5075801;27;45422;-83
2023/09/30 07:11:57;;;;;;;;;13.00;13.00;;;;;15.07;69.83;101972.28;5070257;28;59555;-84
2023/09/30 07:14:22;;;;;;;;;17.33;11.00;;;;;15.06;69.38;101966.06;5071248;28;45648;-83
2023/09/30 07:16:48;;;;;;;;;18.67;14.00;;;;;15.16;69.28;101974.50;5071196;28;46297;-84
2023/09/30 07:19:13;;;;;;;;;16.33;10.33;;;;;14.92;69.29;101910.53;5073431;27;45865;-83
2023/09/30 07:21:39;;;;;;;;;16.67;15.00;;;;;15.44;68.38;101972.06;5070380;27;45949;-83
2023/09/30 07:24:05;;;;;;;;;10.67;9.00;;;;;15.55;68.02;101974.16;5077750;28;46150;-86
2023/09/30 07:26:30;;;;;;;;;14.33;13.33;;;;;15.49;68.33;101956.56;5080004;27;45525;-85
2023/09/30 07:28:58;;;;;;;;;12.67;12.67;;;;;15.71;67.92;101975.06;5079706;28;45977;-85
2023/09/30 07:31:23;;;;;;;;;11.33;11.33;;;;;15.74;66.95;101958.78;5078655;28;45545;-87
2023/09/30 07:33:48;;;;;;;;;11.33;10.33;;;;;15.74;67.22;101933.78;5071613;28;45830;-85
2023/09/30 07:36:14;;;;;;;;;13.67;11.00;;;;;15.80;67.35;101928.97;5063188;27;45268;-83
2023/09/30 07:38:40;;;;;;;;;16.50;15.00;;;;;16.05;66.42;101951.72;5082770;28;45513;-88
2023/09/30 07:41:06;;;;;;;;;17.33;14.00;;;;;16.17;66.49;101956.38;5085489;28;45501;-86
2023/09/30 07:43:31;;;;;;;;;16.33;15.33;;;;;16.21;66.16;101963.28;5086447;28;45114;-84
2023/09/30 07:45:56;;;;;;;;;14.00;11.33;;;;;15.88;66.72;101910.59;5086192;28;45484;-88
2023/09/30 07:48:22;;;;;;;;;15.33;10.67;;;;;15.96;66.28;101910.16;5069909;28;45589;-87
2023/09/30 07:51:01;;;;;;;;;17.67;16.33;;;;;16.38;65.94;101970.34;5070437;28;45401;-85
2023/09/30 07:53:28;;;;;;;;;14.33;13.67;;;;;16.23;65.64;101950.63;5072409;28;46352;-83
2023/09/30 07:55:56;;;;;;;;;18.67;14.67;;;;;16.27;65.12;101943.25;5080245;28;45378;-86
2023/09/30 07:58:21;;;;;;;;;16.33;13.33;;;;;16.29;65.54;101950.31;5090112;28;45390;-86
2023/09/30 08:00:48;;;;;;;;;17.00;13.67;;;;;16.50;65.42;101975.88;5073696;28;45303;-84
2023/09/30 08:03:13;;;;;;;;;14.00;13.67;;;;;16.51;65.55;101987.47;5072121;28;47053;-85
2023/09/30 08:05:38;;;;;;;;;19.00;15.67;;;;;16.16;65.82;101923.31;5069447;28;45527;-85
2023/09/30 08:08:05;;;;;;;;;18.33;14.00;;;;;16.47;65.07;101954.56;5077459;27;45909;-87
2023/09/30 08:10:31;;;;;;;;;14.67;13.00;;;;;16.55;64.79;101950.59;5089320;27;45443;-85
2023/09/30 08:13:02;;;;;;;;;21.33;16.33;;;;;16.45;64.66;101918.91;5090209;28;46982;-85
2023/09/30 08:15:27;;;;;;;;;16.33;13.00;;;;;16.42;64.13;101892.22;5089634;28;45416;-86
2023/09/30 08:17:53;;;;;;;;;16.00;12.33;;;;;17.04;64.17;101986.97;5092580;27;45336;-84
2023/09/30 08:20:21;;;;;;;;;16.33;13.33;;;;;16.97;64.00;101972.19;5088553;27;45412;-87
2023/09/30 08:22:46;;;;;;;;;22.00;12.67;;;;;16.59;63.62;101911.84;5075221;27;47853;-81
2023/09/30 08:25:12;;;;;;;;;12.33;11.33;;;;;17.17;63.79;101994.28;5087907;28;45437;-82
2023/09/30 08:27:38;;;;;;;;;15.33;12.33;;;;;17.21;63.52;101993.16;5081940;27;45219;-82
2023/09/30 08:30:05;;;;;;;;;15.33;14.00;;;;;16.70;63.51;101918.31;5077297;27;45537;-85
2023/09/30 08:32:33;;;;;;;;;19.67;15.67;;;;;16.94;63.48;101958.97;5067963;28;45876;-85
2023/09/30 08:34:58;;;;;;;;;16.33;13.00;;;;;16.83;63.36;101925.63;5093068;27;45535;-87
2023/09/30 08:37:24;;;;;;;;;17.00;11.33;;;;;17.30;63.37;101987.19;5079606;28;55097;-88
2023/09/30 08:39:54;;;;;;;;;17.00;13.00;;;;;17.30;63.43;101982.69;5091946;28;45242;-86
2023/09/30 08:42:24;;;;;;;;;6.00;2.33;;;;;17.24;63.57;101976.84;5087711;28;47128;-87
2023/09/30 08:44:56;;;;;;;;;15.67;14.00;;;;;17.37;63.73;101993.94;5088850;28;45394;-83
2023/09/30 08:47:25;;;;;;;;;13.33;13.00;;;;;17.44;63.19;101992.56;5093808;28;44805;-83
2023/09/30 08:49:56;;;;;;;;;16.33;14.00;;;;;17.56;62.83;102004.41;5074184;28;45826;-84
2023/09/30 08:52:22;;;;;;;;;17.00;15.33;;;;;17.59;62.17;101999.72;5071335;28;46791;-81
2023/09/30 08:54:48;;;;;;;;;13.33;13.33;;;;;17.69;62.15;101994.63;5086628;28;45422;-81
2023/09/30 08:57:18;;;;;;;;;17.67;15.00;;;;;17.58;62.35;101971.09;5084776;27;45507;-84
2023/09/30 08:59:46;;;;;;;;;18.00;17.00;;;;;17.75;62.57;101986.16;5085013;27;45372;-84
2023/09/30 09:02:11;;;;;;;;;14.00;11.50;;;;;18.02;62.01;102014.97;5065829;28;45422;-84
2023/09/30 09:04:37;;;;;;;;;14.33;13.00;;;;;17.93;61.43;101986.81;5071382;28;45432;-84
2023/09/30 09:07:02;;;;;;;;;23.67;17.00;;;;;18.22;60.76;102014.50;5060345;28;45362;-83
2023/09/30 09:09:29;;;;;;;;;17.00;15.33;;;;;18.35;60.39;102019.97;5064612;28;45461;-85
2023/09/30 09:11:58;;;;;;;;;26.33;19.00;;;;;18.43;59.95;102017.63;5079602;28;45513;-83
2023/09/30 09:14:49;;;;;;;;;17.67;15.33;;;;;18.51;60.25;102008.09;5058654;28;45408;-81
2023/09/30 09:17:15;;;;;;;;;17.00;17.00;;;;;18.45;59.95;101973.44;5052529;28;45599;-85
2023/09/30 09:19:41;;;;;;;;;16.67;16.67;;;;;18.76;59.17;102001.06;5057497;28;45580;-84
2023/09/30 09:22:06;;;;;;;;;21.67;17.33;;;;;18.77;59.42;101989.31;5059786;28;45224;-83
2023/09/30 09:24:38;;;;;;;;;21.67;15.67;;;;;18.88;58.74;101975.09;5059335;28;45318;-83
2023/09/30 09:27:12;;;;;;;;;13.00;13.00;;;;;18.85;58.56;101960.84;5062645;28;45425;-83
2023/09/30 09:29:39;;;;;;;;;16.67;15.67;;;;;19.22;58.06;101973.59;5063124;28;45375;-83
2023/09/30 09:32:27;;;;;;;;;18.33;14.33;;;;;19.38;57.45;101980.50;5067984;28;48035;-88
2023/09/30 09:35:01;;;;;;;;;15.67;12.67;;;;;19.44;57.37;101980.06;5079162;28;45426;-82
2023/09/30 09:37:27;;;;;;;;;12.67;12.00;;;;;19.45;56.55;101970.16;5061375;28;45754;-82
2023/09/30 09:39:53;;;;;;;;;13.33;11.00;;;;;19.71;55.65;101998.00;5058641;28;45239;-81
2023/09/30 09:42:29;;;;;;;;;15.00;12.67;;;;;19.79;55.70;102010.91;5059101;28;45976;-81
2023/09/30 09:45:08;;;;;;;;;10.67;10.00;;;;;19.93;55.74;102003.56;5067152;28;45456;-82
2023/09/30 09:47:33;;;;;;;;;9.33;9.33;;;;;19.97;54.37;102002.34;5059177;28;45584;-81
2023/09/30 09:49:59;;;;;;;;;14.33;10.00;;;;;20.09;54.47;102008.69;5056050;27;45572;-82
2023/09/30 09:52:25;;;;;;;;;17.33;11.67;;;;;20.09;53.91;102008.69;5066935;27;46404;-85
2023/09/30 09:54:53;;;;;;;;;12.00;12.00;;;;;20.10;53.63;102014.97;5081103;28;45373;-83
2023/09/30 09:57:19;;;;;;;;;14.33;9.33;;;;;20.09;54.28;102008.69;5072086;28;45445;-83
2023/09/30 09:59:47;;;;;;;;;13.33;9.33;;;;;20.20;53.62;101997.97;5074292;27;45707;-81
2023/09/30 10:02:14;;;;;;;;;12.33;10.33;;;;;20.25;53.50;101993.06;5068001;28;46826;-83
2023/09/30 10:04:46;;;;;;;;;11.33;8.00;;;;;20.34;53.71;101986.13;5075364;28;45394;-83
2023/09/30 10:07:21;;;;;;;;;14.00;10.00;;;;;20.53;53.51;101983.78;5067756;28;45657;-84
2023/09/30 10:09:51;;;;;;;;;13.67;12.00;;;;;20.60;54.06;101959.84;5073154;28;45504;-83
2023/09/30 10:12:17;;;;;;;;;16.33;14.33;;;;;20.68;53.82;101952.00;5075601;28;45456;-85
2023/09/30 10:14:43;;;;;;;;;15.00;13.33;;;;;20.84;53.46;101967.91;5070921;28;45294;-86
2023/09/30 10:17:09;;;;;;;;;11.67;10.67;;;;;20.87;52.42;101971.25;5081933;27;45441;-85
2023/09/30 10:19:35;;;;;;;;;10.00;10.00;;;;;20.66;53.33;101937.75;5077858;27;45667;-87
2023/09/30 10:22:19;;;;;;;;;15.33;13.00;;;;;20.98;53.19;101975.81;5069087;28;46888;-88
2023/09/30 10:24:49;;;;;;;;;14.33;10.33;;;;;21.31;52.56;101972.31;5080574;28;45394;-88
2023/09/30 10:27:32;;;;;;;;;10.67;8.67;;;;;21.67;51.81;101968.50;5083904;27;45489;-85
2023/09/30 10:30:10;;;;;;;;;11.00;7.33;;;;;21.92;50.09;101977.34;5077120;28;45499;-83
2023/09/30 10:32:51;;;;;;;;;8.67;7.67;;;;;22.12;49.95;101965.75;5070853;28;45436;-84
2023/09/30 10:35:28;;;;;;;;;10.33;7.67;;;;;22.32;48.82;101964.09;5081601;27;45487;-85
2023/09/30 10:38:22;;;;;;;;;13.67;7.33;;;;;21.95;48.62;101882.28;5071109;28;45509;-88
2023/09/30 10:40:48;;;;;;;;;9.67;9.67;;;;;22.32;48.58;101937.84;5073273;28;45705;-84
2023/09/30 10:43:32;;;;;;;;;10.00;9.00;;;;;22.24;49.19;101939.47;5061047;28;46833;-84
2023/09/30 10:45:58;;;;;;;;;13.67;11.67;;;;;22.06;48.73;101893.97;5076236;28;45491;-86
2023/09/30 10:48:32;;;;;;;;;11.33;9.33;;;;;22.44;49.01;101952.22;5078840;27;45457;-85
2023/09/30 10:51:00;;;;;;;;;10.67;8.67;;;;;22.51;48.91;101952.53;5079413;27;44922;-85
2023/09/30 10:53:29;;;;;;;;;14.33;11.00;;;;;22.49;48.17;101938.25;5080769;27;45711;-87
2023/09/30 10:55:59;;;;;;;;;13.00;10.00;;;;;22.29;48.61;101921.84;5074023;28;45545;-85
2023/09/30 10:58:47;;;;;;;;;4.00;3.00;;;;;22.56;48.34;101944.88;5073058;28;45140;-89
2023/09/30 11:01:15;;;;;;;;;18.00;13.33;;;;;22.43;47.88;101925.25;5075580;28;45715;-86
2023/09/30 11:03:42;;;;;;;;;15.67;15.33;;;;;22.33;47.73;101923.31;5084232;28;45460;-85
2023/09/30 11:06:13;;;;;;;;;10.00;9.33;;;;;22.38;47.78;101929.19;5082503;28;45472;-85
2023/09/30 11:08:45;;;;;;;;;15.67;13.67;;;;;22.15;47.89;101895.06;5082084;28;45348;-87
2023/09/30 11:11:10;;;;;;;;;15.00;12.67;;;;;22.28;47.58;101892.16;5081802;27;45437;-90
2023/09/30 11:13:36;;;;;;;;;13.33;13.33;;;;;22.98;45.72;101928.66;5078047;28;46432;-86